createdAt,value
2023-04-08T00:00:08.555Z,3.12
2023-04-08T00:03:12.633Z,3.17
2023-04-08T00:06:16.279Z,3.02
2023-04-08T00:09:20.243Z,2.94
2023-04-08T00:12:24.252Z,2.86
2023-04-08T00:15:28.358Z,2.42
2023-04-08T00:18:32.234Z,2.42
2023-04-08T00:21:36.330Z,2.44
2023-04-08T00:24:40.299Z,2.33
2023-04-08T00:27:44.508Z,2.36
2023-04-08T00:30:48.552Z,2.22
2023-04-08T00:33:52.401Z,2.24
2023-04-08T00:36:56.608Z,2.27
2023-04-08T00:40:00.479Z,2.38
2023-04-08T00:43:04.385Z,2.41
2023-04-08T00:46:08.311Z,2.58
2023-04-08T00:49:12.221Z,2.71
2023-04-08T00:52:19.286Z,2.54
2023-04-08T00:55:23.324Z,2.36
2023-04-08T00:58:27.147Z,2.63
2023-04-08T01:01:31.195Z,2.34
2023-04-08T01:04:34.987Z,2.68
2023-04-08T01:07:38.980Z,2.48
2023-04-08T01:10:42.925Z,2.25
2023-04-08T01:13:46.809Z,2.45
2023-04-08T01:16:50.765Z,2.43
2023-04-08T01:19:54.870Z,2.49
2023-04-08T01:22:58.920Z,2.62
2023-04-08T01:26:03.023Z,2.42
2023-04-08T01:29:06.794Z,2.55
2023-04-08T01:32:10.670Z,2.22
2023-04-08T01:35:14.709Z,2.12
2023-04-08T01:38:18.804Z,2.35
2023-04-08T01:41:22.804Z,2.60
2023-04-08T01:44:26.862Z,2.33
2023-04-08T01:47:30.932Z,2.52
2023-04-08T01:50:34.909Z,2.39
2023-04-08T01:53:39.037Z,2.31
2023-04-08T01:56:43.029Z,2.29
2023-04-08T01:59:47.037Z,2.37
2023-04-08T02:02:51.285Z,2.51
2023-04-08T02:05:55.006Z,2.55
2023-04-08T02:08:58.875Z,2.28
2023-04-08T02:12:02.796Z,2.25
2023-04-08T02:15:06.940Z,2.45
2023-04-08T02:18:10.977Z,2.28
2023-04-08T02:21:14.868Z,2.46
2023-04-08T02:24:18.742Z,2.28
2023-04-08T02:27:22.682Z,2.41
2023-04-08T02:30:26.605Z,2.67
2023-04-08T02:33:30.564Z,2.59
2023-04-08T02:36:34.540Z,2.81
2023-04-08T02:39:38.671Z,2.82
2023-04-08T02:42:42.709Z,2.79
2023-04-08T02:45:46.899Z,2.86
2023-04-08T02:48:51.365Z,2.79
2023-04-08T02:51:55.376Z,3.12
2023-04-08T02:54:59.482Z,2.94
2023-04-08T02:58:04.984Z,2.80
2023-04-08T03:01:09.195Z,2.75
2023-04-08T03:04:12.986Z,2.85
2023-04-08T03:07:16.920Z,2.83
2023-04-08T03:10:21.062Z,2.83
2023-04-08T03:13:25.134Z,2.59
2023-04-08T03:16:29.221Z,2.88
2023-04-08T03:19:33.083Z,2.90
2023-04-08T03:22:37.121Z,2.54
2023-04-08T03:25:41.221Z,2.69
2023-04-08T03:28:45.330Z,2.69
2023-04-08T03:31:49.374Z,2.76
2023-04-08T03:34:53.331Z,2.99
2023-04-08T03:37:57.365Z,3.12
2023-04-08T03:41:01.549Z,2.88
2023-04-08T03:44:05.533Z,2.91
2023-04-08T03:47:10.393Z,2.99
2023-04-08T03:50:13.916Z,3.10
2023-04-08T03:53:17.840Z,4.33
2023-04-08T03:56:21.881Z,3.52
2023-04-08T03:59:25.837Z,3.14
2023-04-08T04:02:30.027Z,2.98
2023-04-08T04:05:33.944Z,3.15
2023-04-08T04:08:38.072Z,3.25
2023-04-08T04:11:42.175Z,3.29
2023-04-08T04:14:45.940Z,3.39
2023-04-08T04:17:49.892Z,3.53
2023-04-08T04:20:53.792Z,3.36
2023-04-08T04:23:57.737Z,3.52
2023-04-08T04:27:01.790Z,3.56
2023-04-08T04:30:05.818Z,3.08
2023-04-08T04:33:09.841Z,3.22
2023-04-08T04:36:13.984Z,3.29
2023-04-08T04:39:18.007Z,3.30
2023-04-08T04:42:21.966Z,3.56
2023-04-08T04:45:26.104Z,3.54
2023-04-08T04:48:30.088Z,3.77
2023-04-08T04:51:34.008Z,3.69
2023-04-08T04:54:37.839Z,3.45
2023-04-08T04:57:41.821Z,3.74
2023-04-08T05:00:47.785Z,3.95
2023-04-08T05:03:51.792Z,3.74
2023-04-08T05:06:55.705Z,3.77
